sensor_id;sensor_type;location;lat;lon;timestamp;P1;durP1;ratioP1;P2;durP2;ratioP2
2542;SDS011;1116;51.502;7.414;2023-03-01T00:02:17;12.90;;;10.65;;
2542;SDS011;1116;51.502;7.414;2023-03-01T00:04:48;12.10;;;10.07;;
2542;SDS011;1116;51.502;7.414;2023-03-01T00:07:22;12.15;;;10.82;;
2542;SDS011;1116;51.502;7.414;2023-03-01T00:09:52;11.48;;;9.10;;
2542;SDS011;1116;51.502;7.414;2023-03-01T00:12:23;14.07;;;10.68;;
2542;SDS011;1116;51.502;7.414;2023-03-01T00:14:55;20.48;;;10.60;;
2542;SDS011;1116;51.502;7.414;2023-03-01T00:17:27;11.25;;;10.07;;
2542;SDS011;1116;51.502;7.414;2023-03-01T00:19:58;11.70;;;8.85;;
2542;SDS011;1116;51.502;7.414;2023-03-01T00:22:31;14.35;;;9.70;;
2542;SDS011;1116;51.502;7.414;2023-03-01T00:25:02;13.80;;;9.57;;
2542;SDS011;1116;51.502;7.414;2023-03-01T00:27:33;11.43;;;9.60;;
2542;SDS011;1116;51.502;7.414;2023-03-01T00:30:05;11.63;;;9.63;;
2542;SDS011;1116;51.502;7.414;2023-03-01T00:32:37;13.25;;;9.73;;
2542;SDS011;1116;51.502;7.414;2023-03-01T00:35:08;11.52;;;9.73;;
2542;SDS011;1116;51.502;7.414;2023-03-01T00:37:41;12.98;;;9.85;;
2542;SDS011;1116;51.502;7.414;2023-03-01T00:40:13;12.18;;;9.40;;
2542;SDS011;1116;51.502;7.414;2023-03-01T00:42:44;10.45;;;8.57;;
2542;SDS011;1116;51.502;7.414;2023-03-01T00:45:15;10.32;;;9.20;;
2542;SDS011;1116;51.502;7.414;2023-03-01T00:47:47;10.18;;;9.07;;
2542;SDS011;1116;51.502;7.414;2023-03-01T00:50:18;11.05;;;9.48;;
2542;SDS011;1116;51.502;7.414;2023-03-01T00:52:54;11.88;;;10.13;;
2542;SDS011;1116;51.502;7.414;2023-03-01T00:55:26;12.82;;;9.15;;
2542;SDS011;1116;51.502;7.414;2023-03-01T00:57:56;10.43;;;9.02;;
2542;SDS011;1116;51.502;7.414;2023-03-01T01:00:28;11.25;;;8.23;;
2542;SDS011;1116;51.502;7.414;2023-03-01T01:02:59;10.30;;;9.30;;
2542;SDS011;1116;51.502;7.414;2023-03-01T01:05:29;11.85;;;9.77;;
2542;SDS011;1116;51.502;7.414;2023-03-01T01:08:03;12.88;;;10.65;;
2542;SDS011;1116;51.502;7.414;2023-03-01T01:10:34;11.10;;;9.50;;
2542;SDS011;1116;51.502;7.414;2023-03-01T01:13:05;12.77;;;9.80;;
2542;SDS011;1116;51.502;7.414;2023-03-01T01:15:36;12.75;;;9.75;;
2542;SDS011;1116;51.502;7.414;2023-03-01T01:18:07;13.10;;;10.10;;
2542;SDS011;1116;51.502;7.414;2023-03-01T01:20:38;14.60;;;9.70;;
2542;SDS011;1116;51.502;7.414;2023-03-01T01:23:11;12.40;;;9.85;;
2542;SDS011;1116;51.502;7.414;2023-03-01T01:25:42;12.77;;;9.75;;
2542;SDS011;1116;51.502;7.414;2023-03-01T01:28:13;13.57;;;10.48;;
2542;SDS011;1116;51.502;7.414;2023-03-01T01:30:44;11.48;;;9.73;;
2542;SDS011;1116;51.502;7.414;2023-03-01T01:33:15;13.55;;;10.00;;
2542;SDS011;1116;51.502;7.414;2023-03-01T01:35:46;12.40;;;10.10;;
2542;SDS011;1116;51.502;7.414;2023-03-01T01:38:19;12.73;;;9.93;;
2542;SDS011;1116;51.502;7.414;2023-03-01T01:40:51;14.38;;;11.60;;
2542;SDS011;1116;51.502;7.414;2023-03-01T01:43:23;11.48;;;10.15;;
2542;SDS011;1116;51.502;7.414;2023-03-01T01:45:59;14.25;;;10.52;;
2542;SDS011;1116;51.502;7.414;2023-03-01T01:48:34;15.25;;;11.10;;
2542;SDS011;1116;51.502;7.414;2023-03-01T01:51:11;13.13;;;10.10;;
2542;SDS011;1116;51.502;7.414;2023-03-01T01:53:53;16.10;;;10.95;;
2542;SDS011;1116;51.502;7.414;2023-03-01T01:56:28;20.52;;;11.43;;
2542;SDS011;1116;51.502;7.414;2023-03-01T01:59:00;15.73;;;10.55;;
2542;SDS011;1116;51.502;7.414;2023-03-01T02:01:34;15.60;;;12.68;;
2542;SDS011;1116;51.502;7.414;2023-03-01T02:04:08;15.20;;;10.95;;
2542;SDS011;1116;51.502;7.414;2023-03-01T02:06:39;15.80;;;11.30;;
2542;SDS011;1116;51.502;7.414;2023-03-01T02:09:17;15.48;;;11.30;;
2542;SDS011;1116;51.502;7.414;2023-03-01T02:11:50;15.07;;;11.85;;
2542;SDS011;1116;51.502;7.414;2023-03-01T02:14:22;14.02;;;10.65;;
2542;SDS011;1116;51.502;7.414;2023-03-01T02:17:01;13.65;;;10.95;;
2542;SDS011;1116;51.502;7.414;2023-03-01T02:19:36;14.40;;;10.52;;
2542;SDS011;1116;51.502;7.414;2023-03-01T02:22:19;14.52;;;10.45;;
2542;SDS011;1116;51.502;7.414;2023-03-01T02:24:59;16.35;;;11.50;;
2542;SDS011;1116;51.502;7.414;2023-03-01T02:27:42;12.82;;;10.25;;
2542;SDS011;1116;51.502;7.414;2023-03-01T02:30:23;11.10;;;9.93;;
2542;SDS011;1116;51.502;7.414;2023-03-01T02:32:55;14.38;;;10.98;;
2542;SDS011;1116;51.502;7.414;2023-03-01T02:35:30;13.43;;;10.55;;
2542;SDS011;1116;51.502;7.414;2023-03-01T02:38:05;12.10;;;10.57;;
2542;SDS011;1116;51.502;7.414;2023-03-01T02:40:38;14.02;;;11.30;;
2542;SDS011;1116;51.502;7.414;2023-03-01T02:43:11;13.75;;;10.25;;
2542;SDS011;1116;51.502;7.414;2023-03-01T02:45:47;11.35;;;9.32;;
2542;SDS011;1116;51.502;7.414;2023-03-01T02:48:20;15.40;;;10.32;;
2542;SDS011;1116;51.502;7.414;2023-03-01T02:51:02;11.98;;;9.75;;
2542;SDS011;1116;51.502;7.414;2023-03-01T02:53:39;11.20;;;9.23;;
2542;SDS011;1116;51.502;7.414;2023-03-01T02:56:15;16.08;;;10.48;;
2542;SDS011;1116;51.502;7.414;2023-03-01T02:58:46;11.18;;;8.93;;
2542;SDS011;1116;51.502;7.414;2023-03-01T03:01:21;11.20;;;9.90;;
2542;SDS011;1116;51.502;7.414;2023-03-01T03:04:04;10.25;;;8.45;;
2542;SDS011;1116;51.502;7.414;2023-03-01T03:06:36;10.35;;;8.75;;
2542;SDS011;1116;51.502;7.414;2023-03-01T03:09:08;15.20;;;9.32;;
2542;SDS011;1116;51.502;7.414;2023-03-01T03:11:43;11.45;;;8.98;;
2542;SDS011;1116;51.502;7.414;2023-03-01T03:17:13;12.52;;;9.20;;
2542;SDS011;1116;51.502;7.414;2023-03-01T03:19:45;12.30;;;10.55;;
2542;SDS011;1116;51.502;7.414;2023-03-01T03:22:15;12.13;;;8.85;;
2542;SDS011;1116;51.502;7.414;2023-03-01T03:24:46;10.50;;;9.13;;
2542;SDS011;1116;51.502;7.414;2023-03-01T03:27:17;10.75;;;9.20;;
2542;SDS011;1116;51.502;7.414;2023-03-01T03:29:48;12.48;;;9.63;;
2542;SDS011;1116;51.502;7.414;2023-03-01T03:32:21;11.52;;;9.93;;
2542;SDS011;1116;51.502;7.414;2023-03-01T03:34:52;11.90;;;9.80;;
2542;SDS011;1116;51.502;7.414;2023-03-01T03:37:23;12.07;;;10.00;;
2542;SDS011;1116;51.502;7.414;2023-03-01T03:40:08;12.65;;;10.10;;
2542;SDS011;1116;51.502;7.414;2023-03-01T03:42:43;13.20;;;10.90;;
2542;SDS011;1116;51.502;7.414;2023-03-01T03:45:14;13.90;;;10.90;;
2542;SDS011;1116;51.502;7.414;2023-03-01T03:47:47;12.68;;;9.95;;
2542;SDS011;1116;51.502;7.414;2023-03-01T03:50:18;11.88;;;10.07;;
2542;SDS011;1116;51.502;7.414;2023-03-01T03:52:49;13.38;;;10.63;;
2542;SDS011;1116;51.502;7.414;2023-03-01T03:55:20;14.35;;;10.00;;
2542;SDS011;1116;51.502;7.414;2023-03-01T03:57:56;12.68;;;9.93;;
2542;SDS011;1116;51.502;7.414;2023-03-01T04:00:29;12.07;;;9.15;;
2542;SDS011;1116;51.502;7.414;2023-03-01T04:03:09;12.98;;;9.77;;
2542;SDS011;1116;51.502;7.414;2023-03-01T04:05:41;11.32;;;9.25;;
2542;SDS011;1116;51.502;7.414;2023-03-01T04:08:24;14.15;;;10.32;;
2542;SDS011;1116;51.502;7.414;2023-03-01T04:10:57;13.18;;;10.27;;
2542;SDS011;1116;51.502;7.414;2023-03-01T04:13:50;12.98;;;9.93;;
2542;SDS011;1116;51.502;7.414;2023-03-01T04:16:22;11.73;;;10.25;;
2542;SDS011;1116;51.502;7.414;2023-03-01T04:18:56;14.00;;;10.38;;
2542;SDS011;1116;51.502;7.414;2023-03-01T04:21:28;12.07;;;10.25;;
2542;SDS011;1116;51.502;7.414;2023-03-01T04:23:59;12.65;;;9.85;;
2542;SDS011;1116;51.502;7.414;2023-03-01T04:26:31;10.75;;;9.60;;
2542;SDS011;1116;51.502;7.414;2023-03-01T04:29:01;13.02;;;10.40;;
2542;SDS011;1116;51.502;7.414;2023-03-01T04:31:32;12.07;;;10.35;;
2542;SDS011;1116;51.502;7.414;2023-03-01T04:34:06;14.10;;;11.07;;
2542;SDS011;1116;51.502;7.414;2023-03-01T04:36:36;16.10;;;11.50;;
2542;SDS011;1116;51.502;7.414;2023-03-01T04:39:07;12.32;;;11.00;;
2542;SDS011;1116;51.502;7.414;2023-03-01T04:41:39;12.70;;;10.60;;
2542;SDS011;1116;51.502;7.414;2023-03-01T04:44:11;13.57;;;11.00;;
2542;SDS011;1116;51.502;7.414;2023-03-01T04:46:41;15.02;;;11.43;;
2542;SDS011;1116;51.502;7.414;2023-03-01T04:49:15;12.07;;;10.68;;
2542;SDS011;1116;51.502;7.414;2023-03-01T04:51:46;14.82;;;10.65;;
2542;SDS011;1116;51.502;7.414;2023-03-01T04:54:17;13.85;;;10.98;;
2542;SDS011;1116;51.502;7.414;2023-03-01T04:59:25;15.60;;;11.13;;
2542;SDS011;1116;51.502;7.414;2023-03-01T05:01:57;18.67;;;12.20;;
2542;SDS011;1116;51.502;7.414;2023-03-01T05:04:31;14.55;;;11.02;;
2542;SDS011;1116;51.502;7.414;2023-03-01T05:07:02;14.40;;;11.43;;
2542;SDS011;1116;51.502;7.414;2023-03-01T05:09:33;16.15;;;11.65;;
2542;SDS011;1116;51.502;7.414;2023-03-01T05:12:04;15.23;;;10.63;;
2542;SDS011;1116;51.502;7.414;2023-03-01T05:14:35;14.00;;;10.65;;
2542;SDS011;1116;51.502;7.414;2023-03-01T05:17:06;15.48;;;10.75;;
2542;SDS011;1116;51.502;7.414;2023-03-01T05:19:40;15.77;;;11.50;;
2542;SDS011;1116;51.502;7.414;2023-03-01T05:22:12;14.50;;;11.55;;
2542;SDS011;1116;51.502;7.414;2023-03-01T05:24:43;16.20;;;12.27;;
2542;SDS011;1116;51.502;7.414;2023-03-01T05:27:14;14.32;;;11.80;;
2542;SDS011;1116;51.502;7.414;2023-03-01T05:29:45;13.73;;;11.23;;
2542;SDS011;1116;51.502;7.414;2023-03-01T05:32:16;14.30;;;11.45;;
2542;SDS011;1116;51.502;7.414;2023-03-01T05:34:49;13.38;;;11.52;;
2542;SDS011;1116;51.502;7.414;2023-03-01T05:37:22;14.48;;;10.75;;
2542;SDS011;1116;51.502;7.414;2023-03-01T05:39:53;13.07;;;11.13;;
2542;SDS011;1116;51.502;7.414;2023-03-01T05:42:23;14.88;;;11.32;;
2542;SDS011;1116;51.502;7.414;2023-03-01T05:44:54;13.80;;;11.20;;
2542;SDS011;1116;51.502;7.414;2023-03-01T05:47:25;15.25;;;11.43;;
2542;SDS011;1116;51.502;7.414;2023-03-01T05:49:59;12.70;;;11.30;;
2542;SDS011;1116;51.502;7.414;2023-03-01T05:52:30;15.07;;;11.35;;
2542;SDS011;1116;51.502;7.414;2023-03-01T05:55:01;12.90;;;10.95;;
2542;SDS011;1116;51.502;7.414;2023-03-01T05:57:32;14.05;;;11.00;;
2542;SDS011;1116;51.502;7.414;2023-03-01T06:00:03;13.63;;;10.98;;
2542;SDS011;1116;51.502;7.414;2023-03-01T06:02:34;13.77;;;11.13;;
2542;SDS011;1116;51.502;7.414;2023-03-01T06:05:09;14.10;;;11.10;;
2542;SDS011;1116;51.502;7.414;2023-03-01T06:07:41;13.15;;;10.73;;
2542;SDS011;1116;51.502;7.414;2023-03-01T06:10:13;17.67;;;11.35;;
2542;SDS011;1116;51.502;7.414;2023-03-01T06:12:44;17.95;;;12.30;;
2542;SDS011;1116;51.502;7.414;2023-03-01T06:15:22;14.50;;;11.50;;
2542;SDS011;1116;51.502;7.414;2023-03-01T06:20:44;17.48;;;13.38;;
2542;SDS011;1116;51.502;7.414;2023-03-01T06:23:14;16.77;;;11.98;;
2542;SDS011;1116;51.502;7.414;2023-03-01T06:25:45;14.82;;;12.13;;
2542;SDS011;1116;51.502;7.414;2023-03-01T06:28:16;18.73;;;12.30;;
2542;SDS011;1116;51.502;7.414;2023-03-01T06:30:48;15.75;;;12.35;;
2542;SDS011;1116;51.502;7.414;2023-03-01T06:33:20;16.35;;;12.35;;
2542;SDS011;1116;51.502;7.414;2023-03-01T06:35:56;14.68;;;11.40;;
2542;SDS011;1116;51.502;7.414;2023-03-01T06:38:27;14.82;;;12.07;;
2542;SDS011;1116;51.502;7.414;2023-03-01T06:40:58;18.50;;;12.57;;
2542;SDS011;1116;51.502;7.414;2023-03-01T06:43:29;16.55;;;13.10;;
2542;SDS011;1116;51.502;7.414;2023-03-01T06:46:02;17.13;;;13.48;;
2542;SDS011;1116;51.502;7.414;2023-03-01T06:48:34;16.30;;;13.52;;
2542;SDS011;1116;51.502;7.414;2023-03-01T06:51:11;21.30;;;13.68;;
2542;SDS011;1116;51.502;7.414;2023-03-01T06:53:41;16.38;;;13.40;;
2542;SDS011;1116;51.502;7.414;2023-03-01T06:56:12;16.80;;;13.10;;
2542;SDS011;1116;51.502;7.414;2023-03-01T06:58:43;16.10;;;12.85;;
2542;SDS011;1116;51.502;7.414;2023-03-01T07:01:14;18.00;;;13.65;;
2542;SDS011;1116;51.502;7.414;2023-03-01T07:03:45;19.25;;;12.93;;
2542;SDS011;1116;51.502;7.414;2023-03-01T07:06:18;16.73;;;13.30;;
2542;SDS011;1116;51.502;7.414;2023-03-01T07:08:49;18.20;;;13.20;;
2542;SDS011;1116;51.502;7.414;2023-03-01T07:11:20;18.20;;;12.95;;
2542;SDS011;1116;51.502;7.414;2023-03-01T07:13:53;18.92;;;13.57;;
2542;SDS011;1116;51.502;7.414;2023-03-01T07:16:25;17.02;;;13.10;;
2542;SDS011;1116;51.502;7.414;2023-03-01T07:18:56;18.05;;;13.85;;
2542;SDS011;1116;51.502;7.414;2023-03-01T07:21:30;16.60;;;13.65;;
2542;SDS011;1116;51.502;7.414;2023-03-01T07:24:01;16.33;;;13.30;;
2542;SDS011;1116;51.502;7.414;2023-03-01T07:26:32;18.02;;;13.82;;
2542;SDS011;1116;51.502;7.414;2023-03-01T07:29:04;18.48;;;13.90;;
2542;SDS011;1116;51.502;7.414;2023-03-01T07:31:39;18.25;;;13.20;;
2542;SDS011;1116;51.502;7.414;2023-03-01T07:34:10;20.65;;;14.18;;
2542;SDS011;1116;51.502;7.414;2023-03-01T07:36:43;20.55;;;14.95;;
2542;SDS011;1116;51.502;7.414;2023-03-01T07:39:14;19.33;;;15.82;;
2542;SDS011;1116;51.502;7.414;2023-03-01T07:41:46;21.70;;;16.42;;
2542;SDS011;1116;51.502;7.414;2023-03-01T07:44:17;22.38;;;15.98;;
2542;SDS011;1116;51.502;7.414;2023-03-01T07:46:48;18.95;;;15.52;;
2542;SDS011;1116;51.502;7.414;2023-03-01T07:49:19;21.73;;;15.65;;
2542;SDS011;1116;51.502;7.414;2023-03-01T07:51:53;20.90;;;15.85;;
2542;SDS011;1116;51.502;7.414;2023-03-01T07:54:24;20.58;;;15.45;;
2542;SDS011;1116;51.502;7.414;2023-03-01T07:57:07;19.58;;;14.73;;
2542;SDS011;1116;51.502;7.414;2023-03-01T07:59:38;19.55;;;15.23;;
2542;SDS011;1116;51.502;7.414;2023-03-01T08:02:09;19.17;;;15.30;;
2542;SDS011;1116;51.502;7.414;2023-03-01T08:04:40;24.00;;;15.23;;
2542;SDS011;1116;51.502;7.414;2023-03-01T08:07:14;18.85;;;14.15;;
2542;SDS011;1116;51.502;7.414;2023-03-01T08:09:44;16.25;;;13.02;;
2542;SDS011;1116;51.502;7.414;2023-03-01T08:12:19;18.50;;;13.73;;
2542;SDS011;1116;51.502;7.414;2023-03-01T08:15:09;14.68;;;11.98;;
2542;SDS011;1116;51.502;7.414;2023-03-01T08:17:40;17.15;;;13.73;;
2542;SDS011;1116;51.502;7.414;2023-03-01T08:20:11;17.13;;;13.50;;
2542;SDS011;1116;51.502;7.414;2023-03-01T08:22:48;18.63;;;13.45;;
2542;SDS011;1116;51.502;7.414;2023-03-01T08:28:03;15.63;;;12.95;;
2542;SDS011;1116;51.502;7.414;2023-03-01T08:30:35;15.48;;;12.38;;
2542;SDS011;1116;51.502;7.414;2023-03-01T08:33:06;17.05;;;12.15;;
2542;SDS011;1116;51.502;7.414;2023-03-01T08:35:36;13.07;;;10.57;;
2542;SDS011;1116;51.502;7.414;2023-03-01T08:38:10;12.98;;;9.82;;
2542;SDS011;1116;51.502;7.414;2023-03-01T08:40:41;15.18;;;11.52;;
2542;SDS011;1116;51.502;7.414;2023-03-01T08:43:12;14.00;;;11.38;;
2542;SDS011;1116;51.502;7.414;2023-03-01T08:45:44;13.05;;;11.20;;
2542;SDS011;1116;51.502;7.414;2023-03-01T08:48:18;13.93;;;10.60;;
2542;SDS011;1116;51.502;7.414;2023-03-01T08:50:49;13.20;;;11.45;;
2542;SDS011;1116;51.502;7.414;2023-03-01T08:53:22;12.98;;;10.07;;
2542;SDS011;1116;51.502;7.414;2023-03-01T08:56:33;13.60;;;10.65;;
2542;SDS011;1116;51.502;7.414;2023-03-01T08:59:04;12.73;;;10.15;;
2542;SDS011;1116;51.502;7.414;2023-03-01T09:01:35;16.33;;;9.80;;
2542;SDS011;1116;51.502;7.414;2023-03-01T09:04:16;12.30;;;9.95;;
2542;SDS011;1116;51.502;7.414;2023-03-01T09:06:47;14.63;;;11.02;;
2542;SDS011;1116;51.502;7.414;2023-03-01T09:09:20;10.75;;;9.20;;
2542;SDS011;1116;51.502;7.414;2023-03-01T09:11:51;11.15;;;9.00;;
2542;SDS011;1116;51.502;7.414;2023-03-01T09:14:22;11.43;;;9.13;;
2542;SDS011;1116;51.502;7.414;2023-03-01T09:16:53;12.90;;;9.32;;
2542;SDS011;1116;51.502;7.414;2023-03-01T09:19:24;10.75;;;8.57;;
2542;SDS011;1116;51.502;7.414;2023-03-01T09:21:55;12.60;;;8.70;;
2542;SDS011;1116;51.502;7.414;2023-03-01T09:24:29;11.30;;;8.40;;
2542;SDS011;1116;51.502;7.414;2023-03-01T09:27:01;16.98;;;9.00;;
2542;SDS011;1116;51.502;7.414;2023-03-01T09:29:35;15.85;;;9.38;;
2542;SDS011;1116;51.502;7.414;2023-03-01T09:32:07;9.98;;;8.95;;
2542;SDS011;1116;51.502;7.414;2023-03-01T09:34:39;10.73;;;8.57;;
2542;SDS011;1116;51.502;7.414;2023-03-01T09:37:22;8.57;;;7.47;;
2542;SDS011;1116;51.502;7.414;2023-03-01T09:39:55;12.48;;;8.27;;
2542;SDS011;1116;51.502;7.414;2023-03-01T09:42:27;10.82;;;7.72;;
2542;SDS011;1116;51.502;7.414;2023-03-01T09:45:01;9.43;;;7.40;;
2542;SDS011;1116;51.502;7.414;2023-03-01T09:47:35;10.20;;;7.30;;
2542;SDS011;1116;51.502;7.414;2023-03-01T09:50:23;10.00;;;7.18;;
2542;SDS011;1116;51.502;7.414;2023-03-01T09:53:04;7.97;;;7.10;;
2542;SDS011;1116;51.502;7.414;2023-03-01T09:55:48;7.90;;;7.10;;
2542;SDS011;1116;51.502;7.414;2023-03-01T09:58:29;8.07;;;6.78;;
2542;SDS011;1116;51.502;7.414;2023-03-01T10:01:15;8.80;;;7.80;;
2542;SDS011;1116;51.502;7.414;2023-03-01T10:06:58;8.50;;;7.20;;
2542;SDS011;1116;51.502;7.414;2023-03-01T10:09:37;10.27;;;7.87;;
2542;SDS011;1116;51.502;7.414;2023-03-01T10:12:13;9.15;;;7.40;;
2542;SDS011;1116;51.502;7.414;2023-03-01T10:14:48;8.80;;;7.90;;
2542;SDS011;1116;51.502;7.414;2023-03-01T10:17:27;11.63;;;7.23;;
2542;SDS011;1116;51.502;7.414;2023-03-01T10:22:50;9.13;;;7.20;;
2542;SDS011;1116;51.502;7.414;2023-03-01T10:25:30;9.60;;;7.00;;
2542;SDS011;1116;51.502;7.414;2023-03-01T10:28:16;9.30;;;6.80;;
2542;SDS011;1116;51.502;7.414;2023-03-01T10:30:50;9.60;;;6.60;;
2542;SDS011;1116;51.502;7.414;2023-03-01T10:33:23;9.93;;;7.50;;
2542;SDS011;1116;51.502;7.414;2023-03-01T10:35:56;10.00;;;7.03;;
2542;SDS011;1116;51.502;7.414;2023-03-01T10:38:27;9.17;;;6.93;;
2542;SDS011;1116;51.502;7.414;2023-03-01T10:41:04;8.85;;;7.40;;
2542;SDS011;1116;51.502;7.414;2023-03-01T10:43:43;10.03;;;7.20;;
2542;SDS011;1116;51.502;7.414;2023-03-01T10:46:22;9.07;;;6.57;;
2542;SDS011;1116;51.502;7.414;2023-03-01T10:49:12;9.20;;;7.37;;
2542;SDS011;1116;51.502;7.414;2023-03-01T10:51:45;9.20;;;7.63;;
2542;SDS011;1116;51.502;7.414;2023-03-01T10:54:19;9.10;;;7.30;;
2542;SDS011;1116;51.502;7.414;2023-03-01T10:56:52;10.40;;;7.70;;
2542;SDS011;1116;51.502;7.414;2023-03-01T10:59:28;10.20;;;7.70;;
2542;SDS011;1116;51.502;7.414;2023-03-01T11:02:02;8.30;;;7.37;;
2542;SDS011;1116;51.502;7.414;2023-03-01T11:04:56;9.57;;;7.23;;
2542;SDS011;1116;51.502;7.414;2023-03-01T11:07:29;8.43;;;6.60;;
2542;SDS011;1116;51.502;7.414;2023-03-01T11:10:01;8.57;;;7.67;;
2542;SDS011;1116;51.502;7.414;2023-03-01T11:12:42;7.97;;;7.17;;
2542;SDS011;1116;51.502;7.414;2023-03-01T11:15:22;8.27;;;7.40;;
2542;SDS011;1116;51.502;7.414;2023-03-01T11:17:55;8.50;;;7.43;;
2542;SDS011;1116;51.502;7.414;2023-03-01T11:20:40;8.40;;;6.80;;
2542;SDS011;1116;51.502;7.414;2023-03-01T11:23:12;8.57;;;7.67;;
2542;SDS011;1116;51.502;7.414;2023-03-01T11:25:49;9.33;;;7.97;;
2542;SDS011;1116;51.502;7.414;2023-03-01T11:28:24;11.50;;;8.10;;
2542;SDS011;1116;51.502;7.414;2023-03-01T11:31:02;12.73;;;8.20;;
2542;SDS011;1116;51.502;7.414;2023-03-01T11:33:39;9.10;;;8.20;;
2542;SDS011;1116;51.502;7.414;2023-03-01T11:36:16;9.80;;;7.53;;
2542;SDS011;1116;51.502;7.414;2023-03-01T11:38:54;9.67;;;7.30;;
2542;SDS011;1116;51.502;7.414;2023-03-01T11:41:28;11.00;;;8.30;;
2542;SDS011;1116;51.502;7.414;2023-03-01T11:44:02;10.90;;;8.23;;
2542;SDS011;1116;51.502;7.414;2023-03-01T11:46:48;9.40;;;7.50;;
2542;SDS011;1116;51.502;7.414;2023-03-01T11:49:37;9.60;;;7.60;;
2542;SDS011;1116;51.502;7.414;2023-03-01T11:52:21;8.50;;;7.60;;
2542;SDS011;1116;51.502;7.414;2023-03-01T11:55:14;8.03;;;7.23;;
2542;SDS011;1116;51.502;7.414;2023-03-01T11:57:57;9.50;;;7.80;;
2542;SDS011;1116;51.502;7.414;2023-03-01T12:00:53;10.67;;;8.63;;
2542;SDS011;1116;51.502;7.414;2023-03-01T12:03:37;13.83;;;8.20;;
2542;SDS011;1116;51.502;7.414;2023-03-01T12:06:45;10.23;;;8.20;;
2542;SDS011;1116;51.502;7.414;2023-03-01T12:09:36;9.00;;;7.37;;
2542;SDS011;1116;51.502;7.414;2023-03-01T12:12:26;10.50;;;7.30;;
2542;SDS011;1116;51.502;7.414;2023-03-01T12:18:07;8.33;;;7.50;;
2542;SDS011;1116;51.502;7.414;2023-03-01T12:20:54;8.77;;;7.60;;
2542;SDS011;1116;51.502;7.414;2023-03-01T12:23:44;9.10;;;7.77;;
2542;SDS011;1116;51.502;7.414;2023-03-01T12:26:34;10.97;;;8.10;;
2542;SDS011;1116;51.502;7.414;2023-03-01T12:29:18;9.80;;;7.73;;
2542;SDS011;1116;51.502;7.414;2023-03-01T12:32:02;12.17;;;8.80;;
2542;SDS011;1116;51.502;7.414;2023-03-01T12:38:02;8.93;;;8.03;;
2542;SDS011;1116;51.502;7.414;2023-03-01T12:40:46;11.87;;;8.30;;
2542;SDS011;1116;51.502;7.414;2023-03-01T12:44:02;9.73;;;8.70;;
2542;SDS011;1116;51.502;7.414;2023-03-01T12:46:52;16.07;;;8.43;;
2542;SDS011;1116;51.502;7.414;2023-03-01T12:49:36;8.23;;;7.43;;
2542;SDS011;1116;51.502;7.414;2023-03-01T12:52:10;11.37;;;8.53;;
2542;SDS011;1116;51.502;7.414;2023-03-01T12:54:47;10.93;;;8.37;;
2542;SDS011;1116;51.502;7.414;2023-03-01T12:57:24;9.30;;;7.47;;
2542;SDS011;1116;51.502;7.414;2023-03-01T13:00:09;10.93;;;8.10;;
2542;SDS011;1116;51.502;7.414;2023-03-01T13:02:50;10.40;;;7.70;;
2542;SDS011;1116;51.502;7.414;2023-03-01T13:05:29;11.20;;;8.27;;
2542;SDS011;1116;51.502;7.414;2023-03-01T13:08:08;9.90;;;6.90;;
2542;SDS011;1116;51.502;7.414;2023-03-01T13:10:48;11.20;;;8.57;;
2542;SDS011;1116;51.502;7.414;2023-03-01T13:13:21;8.77;;;7.87;;
2542;SDS011;1116;51.502;7.414;2023-03-01T13:15:54;9.30;;;7.50;;
2542;SDS011;1116;51.502;7.414;2023-03-01T13:18:32;9.13;;;7.33;;
2542;SDS011;1116;51.502;7.414;2023-03-01T13:21:03;10.70;;;7.87;;
2542;SDS011;1116;51.502;7.414;2023-03-01T13:23:36;13.77;;;7.73;;
2542;SDS011;1116;51.502;7.414;2023-03-01T13:26:14;11.97;;;8.00;;
2542;SDS011;1116;51.502;7.414;2023-03-01T13:28:50;10.30;;;7.73;;
2542;SDS011;1116;51.502;7.414;2023-03-01T13:31:57;9.97;;;8.17;;
2542;SDS011;1116;51.502;7.414;2023-03-01T13:34:44;10.57;;;7.90;;
2542;SDS011;1116;51.502;7.414;2023-03-01T13:37:21;8.13;;;7.07;;
2542;SDS011;1116;51.502;7.414;2023-03-01T13:39:57;9.13;;;7.40;;
2542;SDS011;1116;51.502;7.414;2023-03-01T13:42:41;9.07;;;6.90;;
2542;SDS011;1116;51.502;7.414;2023-03-01T13:45:33;8.60;;;7.00;;
2542;SDS011;1116;51.502;7.414;2023-03-01T13:48:14;11.10;;;7.77;;
2542;SDS011;1116;51.502;7.414;2023-03-01T13:51:08;8.57;;;7.10;;
2542;SDS011;1116;51.502;7.414;2023-03-01T13:53:42;8.87;;;7.97;;
2542;SDS011;1116;51.502;7.414;2023-03-01T13:56:16;10.00;;;7.37;;
2542;SDS011;1116;51.502;7.414;2023-03-01T13:58:53;10.67;;;7.87;;
2542;SDS011;1116;51.502;7.414;2023-03-01T14:01:28;11.00;;;7.70;;
2542;SDS011;1116;51.502;7.414;2023-03-01T14:04:17;8.23;;;6.97;;
2542;SDS011;1116;51.502;7.414;2023-03-01T14:06:50;7.87;;;6.50;;
2542;SDS011;1116;51.502;7.414;2023-03-01T14:09:22;7.80;;;7.00;;
2542;SDS011;1116;51.502;7.414;2023-03-01T14:12:03;9.63;;;7.20;;
2542;SDS011;1116;51.502;7.414;2023-03-01T14:14:50;8.40;;;6.60;;
2542;SDS011;1116;51.502;7.414;2023-03-01T14:17:32;7.83;;;6.47;;
2542;SDS011;1116;51.502;7.414;2023-03-01T14:20:18;7.47;;;6.50;;
2542;SDS011;1116;51.502;7.414;2023-03-01T14:22:52;7.20;;;6.50;;
2542;SDS011;1116;51.502;7.414;2023-03-01T14:25:27;6.57;;;5.87;;
2542;SDS011;1116;51.502;7.414;2023-03-01T14:28:02;7.10;;;6.30;;
2542;SDS011;1116;51.502;7.414;2023-03-01T14:30:45;7.33;;;6.43;;
2542;SDS011;1116;51.502;7.414;2023-03-01T14:33:20;7.80;;;6.33;;
2542;SDS011;1116;51.502;7.414;2023-03-01T14:35:54;8.70;;;6.80;;
2542;SDS011;1116;51.502;7.414;2023-03-01T14:38:32;12.93;;;6.47;;
2542;SDS011;1116;51.502;7.414;2023-03-01T14:41:06;9.07;;;6.40;;
2542;SDS011;1116;51.502;7.414;2023-03-01T14:43:41;8.93;;;6.50;;
2542;SDS011;1116;51.502;7.414;2023-03-01T14:46:22;13.00;;;7.03;;
2542;SDS011;1116;51.502;7.414;2023-03-01T14:48:57;8.00;;;6.13;;
2542;SDS011;1116;51.502;7.414;2023-03-01T14:51:35;7.00;;;5.90;;
2542;SDS011;1116;51.502;7.414;2023-03-01T14:54:15;8.97;;;6.53;;
2542;SDS011;1116;51.502;7.414;2023-03-01T14:56:52;7.67;;;6.37;;
2542;SDS011;1116;51.502;7.414;2023-03-01T14:59:24;8.27;;;6.20;;
2542;SDS011;1116;51.502;7.414;2023-03-01T15:01:57;11.60;;;6.63;;
2542;SDS011;1116;51.502;7.414;2023-03-01T15:04:28;7.50;;;6.47;;
2542;SDS011;1116;51.502;7.414;2023-03-01T15:07:01;7.57;;;6.13;;
2542;SDS011;1116;51.502;7.414;2023-03-01T15:09:32;7.90;;;6.63;;
2542;SDS011;1116;51.502;7.414;2023-03-01T15:15:20;7.40;;;6.37;;
2542;SDS011;1116;51.502;7.414;2023-03-01T15:18:15;8.10;;;6.70;;
2542;SDS011;1116;51.502;7.414;2023-03-01T15:20:48;7.67;;;6.00;;
2542;SDS011;1116;51.502;7.414;2023-03-01T15:23:21;6.87;;;5.80;;
2542;SDS011;1116;51.502;7.414;2023-03-01T15:25:53;7.70;;;6.07;;
2542;SDS011;1116;51.502;7.414;2023-03-01T15:28:27;7.70;;;5.27;;
2542;SDS011;1116;51.502;7.414;2023-03-01T15:31:02;10.30;;;6.43;;
2542;SDS011;1116;51.502;7.414;2023-03-01T15:33:40;6.23;;;5.60;;
2542;SDS011;1116;51.502;7.414;2023-03-01T15:39:02;7.17;;;6.03;;
2542;SDS011;1116;51.502;7.414;2023-03-01T15:41:38;8.40;;;5.57;;
2542;SDS011;1116;51.502;7.414;2023-03-01T15:44:25;9.57;;;6.30;;
2542;SDS011;1116;51.502;7.414;2023-03-01T15:47:21;7.37;;;6.10;;
2542;SDS011;1116;51.502;7.414;2023-03-01T15:49:59;6.20;;;5.17;;
2542;SDS011;1116;51.502;7.414;2023-03-01T15:52:32;6.63;;;5.80;;
2542;SDS011;1116;51.502;7.414;2023-03-01T15:55:14;7.83;;;5.97;;
2542;SDS011;1116;51.502;7.414;2023-03-01T15:57:47;7.37;;;5.57;;
2542;SDS011;1116;51.502;7.414;2023-03-01T16:00:19;9.63;;;6.17;;
2542;SDS011;1116;51.502;7.414;2023-03-01T16:02:53;9.03;;;6.17;;
2542;SDS011;1116;51.502;7.414;2023-03-01T16:05:27;6.50;;;5.80;;
2542;SDS011;1116;51.502;7.414;2023-03-01T16:08:00;8.17;;;6.70;;
2542;SDS011;1116;51.502;7.414;2023-03-01T16:10:33;8.13;;;5.30;;
2542;SDS011;1116;51.502;7.414;2023-03-01T16:13:05;8.17;;;5.87;;
2542;SDS011;1116;51.502;7.414;2023-03-01T16:15:36;9.90;;;7.27;;
2542;SDS011;1116;51.502;7.414;2023-03-01T16:18:07;7.63;;;6.17;;
2542;SDS011;1116;51.502;7.414;2023-03-01T16:20:41;7.97;;;5.87;;